Terminal Aerodrome Forecast
Issued by NWS

Home | Current Version | Previous Version | Text Only | Print | Product List | Glossary On
Versions: 1 2 3 4 5 6 7 8 9 10 11 12 13 14 15 16 17 18 19 20 21 22 23 24 25 26 27 28
000
FTUS41 KBOX 252326
TAFBAF
TAF
KBAF 252326Z 2600/2624 25009KT P6SM VCSH SCT050 BKN120 OVC250
     FM260200 26004KT P6SM FEW060 BKN150
     FM260500 00000KT 3SM BR FEW250
     FM261200 29005KT P6SM SKC
     FM261700 30009KT P6SM SKC=

USA.gov is the U.S. government's official web portal to all federal, state and local government web resources and services.